createdAt,value
2019-01-21T00:00:56.512Z,61.57
2019-01-21T00:03:25.884Z,75.13
2019-01-21T00:05:55.276Z,77.10
2019-01-21T00:08:24.641Z,57.10
2019-01-21T00:10:53.985Z,57.30
2019-01-21T00:13:23.336Z,54.27
2019-01-21T00:15:52.701Z,53.27
2019-01-21T00:18:22.077Z,56.43
2019-01-21T00:20:51.400Z,53.37
2019-01-21T00:23:20.750Z,55.43
2019-01-21T00:25:50.197Z,55.50
2019-01-21T00:28:20.152Z,54.07
2019-01-21T00:30:49.737Z,54.47
2019-01-21T00:33:19.241Z,57.10
2019-01-21T00:35:48.576Z,56.03
2019-01-21T00:38:18.027Z,54.37
2019-01-21T00:40:47.386Z,57.47
2019-01-21T00:43:16.746Z,74.60
2019-01-21T00:45:46.088Z,60.27
2019-01-21T00:48:15.404Z,57.63
2019-01-21T00:50:44.713Z,67.57
2019-01-21T00:53:14.081Z,89.57
2019-01-21T00:55:43.431Z,107.33
2019-01-21T00:58:12.771Z,91.27
2019-01-21T01:00:42.088Z,91.97
2019-01-21T01:03:11.535Z,90.30
2019-01-21T01:05:40.902Z,68.17
2019-01-21T01:08:10.244Z,105.93
2019-01-21T01:10:39.757Z,103.73
2019-01-21T01:13:09.073Z,110.97
2019-01-21T01:15:38.412Z,118.27
2019-01-21T01:18:08.040Z,125.33
2019-01-21T01:20:37.386Z,127.63
2019-01-21T01:23:06.768Z,138.03
2019-01-21T01:25:36.097Z,120.60
2019-01-21T01:28:05.539Z,118.33
2019-01-21T01:30:34.951Z,122.90
2019-01-21T01:33:04.636Z,134.17
2019-01-21T01:35:34.095Z,129.07
2019-01-21T01:38:03.444Z,123.60
2019-01-21T01:40:32.915Z,128.77
2019-01-21T01:43:02.259Z,131.87
2019-01-21T01:45:31.628Z,120.90
2019-01-21T01:48:02.590Z,117.40
2019-01-21T01:50:32.438Z,122.77
2019-01-21T01:53:02.076Z,123.67
2019-01-21T01:55:32.594Z,125.60
2019-01-21T01:58:03.772Z,122.43
2019-01-21T02:00:33.444Z,126.90
2019-01-21T02:03:02.756Z,120.67
2019-01-21T02:05:32.119Z,107.50
2019-01-21T02:08:01.629Z,91.03
2019-01-21T02:10:31.226Z,66.30
2019-01-21T02:13:00.599Z,76.33
2019-01-21T02:15:29.927Z,82.57
2019-01-21T02:17:59.238Z,81.53
2019-01-21T02:20:28.570Z,81.17
2019-01-21T02:23:03.263Z,84.47
2019-01-21T02:25:53.254Z,94.27
2019-01-21T02:28:38.762Z,101.37
2019-01-21T02:31:53.009Z,95.10
2019-01-21T02:34:47.630Z,89.20
2019-01-21T02:38:12.900Z,83.33
2019-01-21T02:41:25.348Z,45.60
2019-01-21T02:44:53.738Z,37.77
2019-01-21T02:47:44.547Z,33.43
2019-01-21T02:51:01.093Z,31.13
2019-01-21T02:54:19.953Z,32.23
2019-01-21T02:57:20.574Z,33.90
2019-01-21T03:00:30.072Z,34.10
2019-01-21T03:03:41.188Z,31.53
2019-01-21T03:06:41.195Z,64.80
2019-01-21T03:09:51.332Z,69.27
2019-01-21T03:12:46.407Z,63.17
2019-01-21T03:15:51.472Z,67.10
2019-01-21T03:18:53.128Z,65.97
2019-01-21T03:22:15.498Z,61.10
2019-01-21T03:25:20.903Z,63.70
2019-01-21T03:28:37.270Z,61.10
2019-01-21T03:31:37.803Z,58.10
2019-01-21T03:34:55.747Z,62.03
2019-01-21T03:37:58.616Z,58.30
2019-01-21T03:40:54.605Z,60.50
2019-01-21T03:43:49.931Z,48.40
2019-01-21T03:46:58.965Z,57.67
2019-01-21T03:50:05.397Z,60.00
2019-01-21T03:53:36.737Z,37.97
2019-01-21T03:56:14.826Z,38.63
2019-01-21T03:59:23.390Z,51.63
2019-01-21T04:02:33.833Z,53.10
2019-01-21T04:05:29.178Z,51.83
2019-01-21T04:08:28.517Z,54.73
2019-01-21T04:11:28.353Z,61.20
2019-01-21T04:14:33.874Z,61.40
2019-01-21T04:17:38.752Z,49.50
2019-01-21T04:20:29.390Z,39.77
2019-01-21T04:23:46.213Z,37.47
2019-01-21T04:27:14.759Z,32.03
2019-01-21T04:30:15.213Z,34.53
2019-01-21T04:33:13.538Z,36.47
2019-01-21T04:35:59.759Z,37.90
2019-01-21T04:38:59.457Z,37.37
2019-01-21T04:41:42.811Z,35.87
2019-01-21T04:44:57.651Z,39.47
2019-01-21T04:48:10.664Z,41.17
2019-01-21T04:51:26.897Z,44.13
2019-01-21T04:54:56.582Z,43.80
2019-01-21T04:58:02.036Z,41.47
2019-01-21T05:01:20.103Z,38.93
2019-01-21T05:04:29.345Z,40.17
2019-01-21T05:07:44.304Z,42.20
2019-01-21T05:10:44.143Z,44.77
2019-01-21T05:13:46.746Z,43.50
2019-01-21T05:16:40.559Z,42.13
2019-01-21T05:19:59.138Z,41.73
2019-01-21T05:22:45.924Z,42.57
2019-01-21T05:25:42.339Z,41.77
2019-01-21T05:28:55.160Z,39.93
2019-01-21T05:31:51.646Z,42.53
2019-01-21T05:34:34.109Z,39.00
2019-01-21T05:37:48.940Z,38.13
2019-01-21T05:41:08.296Z,40.50
2019-01-21T05:44:21.692Z,40.07
2019-01-21T05:47:46.469Z,41.23
2019-01-21T05:50:56.393Z,32.90
2019-01-21T05:53:47.862Z,27.50
2019-01-21T05:57:00.269Z,24.77
2019-01-21T06:00:11.144Z,25.17
2019-01-21T06:03:36.741Z,25.30
2019-01-21T06:06:53.202Z,24.77
2019-01-21T06:10:18.554Z,25.20
2019-01-21T06:13:34.963Z,23.63
2019-01-21T06:16:26.858Z,24.37
2019-01-21T06:19:23.479Z,29.63
2019-01-21T06:22:23.904Z,21.93
2019-01-21T06:25:13.675Z,20.73
2019-01-21T06:28:29.888Z,22.70
2019-01-21T06:31:40.340Z,22.40
2019-01-21T06:34:42.400Z,22.33
2019-01-21T06:37:41.363Z,22.80
2019-01-21T06:41:06.993Z,20.40
2019-01-21T06:44:22.759Z,21.47
2019-01-21T06:47:36.275Z,21.33
2019-01-21T06:50:35.452Z,19.50
2019-01-21T06:53:45.568Z,20.07
2019-01-21T06:56:51.457Z,22.37
2019-01-21T07:00:16.996Z,21.37
2019-01-21T07:03:06.968Z,18.97
2019-01-21T07:06:12.129Z,19.00
2019-01-21T07:09:06.443Z,19.80
2019-01-21T07:12:00.829Z,19.87
2019-01-21T07:15:01.975Z,22.07
2019-01-21T07:18:12.880Z,20.67
2019-01-21T07:21:21.082Z,20.50
2019-01-21T07:24:37.618Z,20.13
2019-01-21T07:27:42.146Z,19.67
2019-01-21T07:30:38.864Z,18.27
2019-01-21T07:33:41.563Z,18.47
2019-01-21T07:36:45.464Z,18.60
2019-01-21T07:39:50.718Z,20.47
2019-01-21T07:43:07.049Z,18.93
2019-01-21T07:45:57.912Z,18.17
2019-01-21T07:49:00.980Z,17.40
2019-01-21T07:52:05.854Z,19.27
2019-01-21T07:55:25.352Z,20.40
2019-01-21T07:58:21.366Z,18.03
2019-01-21T08:01:17.341Z,18.57
2019-01-21T08:04:21.573Z,18.07
2019-01-21T08:07:05.629Z,19.47
2019-01-21T08:10:24.796Z,18.50
2019-01-21T08:13:15.020Z,19.57
2019-01-21T08:16:22.468Z,21.43
2019-01-21T08:19:29.991Z,19.57
2019-01-21T08:22:36.170Z,21.30
2019-01-21T08:25:40.998Z,20.50
2019-01-21T08:28:49.313Z,19.43
2019-01-21T08:31:27.475Z,21.37
2019-01-21T08:34:30.232Z,19.90
2019-01-21T08:37:31.327Z,19.70
2019-01-21T08:40:27.640Z,17.47
2019-01-21T08:43:30.346Z,19.77
2019-01-21T08:46:37.933Z,19.70
2019-01-21T08:49:39.304Z,19.67
2019-01-21T08:53:04.221Z,21.03
2019-01-21T08:56:32.586Z,20.83
2019-01-21T08:59:27.203Z,18.43
2019-01-21T09:02:31.698Z,18.90
2019-01-21T09:05:32.497Z,17.80
2019-01-21T09:09:09.986Z,17.53
2019-01-21T09:12:17.217Z,15.30
2019-01-21T09:15:38.310Z,17.27
2019-01-21T09:18:47.069Z,17.63
2019-01-21T09:22:01.792Z,19.63
2019-01-21T09:25:18.279Z,18.27
2019-01-21T09:28:17.037Z,19.70
2019-01-21T09:31:20.845Z,18.90
2019-01-21T09:34:22.185Z,20.07
2019-01-21T09:37:41.681Z,20.30
2019-01-21T09:40:49.976Z,18.03
2019-01-21T09:44:00.220Z,17.57
2019-01-21T09:46:48.575Z,17.50
2019-01-21T09:49:16.133Z,17.77
2019-01-21T09:51:55.426Z,18.00
2019-01-21T09:54:25.130Z,17.33
2019-01-21T09:56:57.171Z,18.10
2019-01-21T09:59:26.609Z,18.53
2019-01-21T10:01:58.417Z,17.80
2019-01-21T10:04:34.975Z,16.50
2019-01-21T10:07:39.117Z,16.40
2019-01-21T10:10:43.528Z,17.77
2019-01-21T10:13:45.496Z,16.07
2019-01-21T10:16:36.704Z,14.57
2019-01-21T10:19:30.597Z,15.33
2019-01-21T10:22:31.529Z,16.77
2019-01-21T10:25:41.110Z,18.53
2019-01-21T10:28:43.790Z,17.67
2019-01-21T10:31:59.418Z,16.67
2019-01-21T10:35:04.585Z,16.90
2019-01-21T10:38:19.568Z,18.63
2019-01-21T10:41:30.349Z,17.30
2019-01-21T10:44:43.723Z,17.27
2019-01-21T10:47:28.307Z,19.20
2019-01-21T10:50:21.409Z,18.13
2019-01-21T10:53:12.619Z,19.87
2019-01-21T10:56:08.772Z,19.37
2019-01-21T10:58:48.298Z,19.53
2019-01-21T11:02:10.627Z,20.63
2019-01-21T11:05:31.456Z,20.27
2019-01-21T11:08:33.860Z,20.57
2019-01-21T11:11:53.936Z,20.77
2019-01-21T11:15:15.508Z,19.97
2019-01-21T11:17:59.380Z,18.13
2019-01-21T11:21:12.396Z,18.60
2019-01-21T11:24:37.581Z,18.40
2019-01-21T11:27:36.840Z,17.60
2019-01-21T11:31:03.306Z,17.73
2019-01-21T11:33:49.235Z,18.23
2019-01-21T11:37:05.711Z,18.57
2019-01-21T11:40:21.545Z,17.97
2019-01-21T11:43:29.289Z,19.17
2019-01-21T11:46:19.360Z,21.07
2019-01-21T11:49:25.537Z,19.80
2019-01-21T11:52:24.290Z,18.03
2019-01-21T11:55:50.032Z,18.23
2019-01-21T11:58:55.903Z,17.20
2019-01-21T12:02:06.030Z,17.80
2019-01-21T12:05:28.186Z,17.47
2019-01-21T12:08:30.298Z,18.17
2019-01-21T12:11:37.700Z,18.83
2019-01-21T12:14:56.895Z,20.63
2019-01-21T12:17:36.875Z,17.70
2019-01-21T12:20:34.476Z,17.83
2019-01-21T12:23:20.795Z,19.10
2019-01-21T12:25:57.746Z,18.90
2019-01-21T12:28:53.585Z,19.93
2019-01-21T12:31:50.641Z,18.77
2019-01-21T12:34:56.752Z,19.57
2019-01-21T12:38:22.231Z,18.73
2019-01-21T12:41:21.753Z,18.40
2019-01-21T12:44:53.465Z,18.27
2019-01-21T12:47:54.330Z,18.33
2019-01-21T12:51:10.876Z,19.83
2019-01-21T12:54:20.912Z,18.47
2019-01-21T12:57:17.826Z,17.47
2019-01-21T13:00:22.980Z,19.10
2019-01-21T13:03:18.141Z,18.63
2019-01-21T13:06:13.219Z,20.73
2019-01-21T13:09:10.120Z,19.87
2019-01-21T13:12:02.375Z,20.53
2019-01-21T13:15:40.118Z,21.63
2019-01-21T13:19:08.438Z,17.60
2019-01-21T13:22:09.554Z,19.27
2019-01-21T13:25:22.304Z,17.30
2019-01-21T13:28:18.057Z,17.10
2019-01-21T13:31:27.889Z,18.00
2019-01-21T13:34:17.754Z,17.63
2019-01-21T13:37:27.231Z,17.60
2019-01-21T13:40:17.557Z,19.07
2019-01-21T13:43:09.954Z,18.73
2019-01-21T13:46:21.144Z,18.97
2019-01-21T13:49:11.650Z,19.63
2019-01-21T13:52:17.096Z,20.50
2019-01-21T13:55:26.855Z,19.77
2019-01-21T13:58:36.941Z,21.70
2019-01-21T14:01:30.690Z,20.13
2019-01-21T14:04:53.615Z,20.00
2019-01-21T14:07:51.675Z,19.07
2019-01-21T14:11:13.692Z,19.53
2019-01-21T14:14:20.196Z,20.93
2019-01-21T14:17:36.435Z,21.30
2019-01-21T14:20:21.965Z,21.77
2019-01-21T14:23:05.931Z,22.60
2019-01-21T14:26:15.943Z,23.57
2019-01-21T14:29:07.171Z,24.07
2019-01-21T14:32:13.778Z,23.40
2019-01-21T14:35:11.890Z,23.20
2019-01-21T14:38:20.784Z,24.73
2019-01-21T14:41:33.999Z,23.20
2019-01-21T14:44:35.050Z,24.77
2019-01-21T14:48:09.882Z,24.67
2019-01-21T14:51:23.530Z,23.47
2019-01-21T14:54:37.232Z,22.67
2019-01-21T14:57:48.670Z,22.67
2019-01-21T15:00:44.944Z,23.27
2019-01-21T15:03:29.107Z,23.67
2019-01-21T15:06:37.146Z,24.10
2019-01-21T15:09:40.699Z,24.80
2019-01-21T15:12:43.130Z,26.23
2019-01-21T15:15:33.766Z,24.97
2019-01-21T15:18:21.333Z,25.83
2019-01-21T15:21:31.160Z,28.47
2019-01-21T15:24:36.145Z,25.80
2019-01-21T15:27:50.994Z,28.90
2019-01-21T15:30:59.951Z,27.17
2019-01-21T15:33:40.802Z,29.30
2019-01-21T15:36:33.995Z,33.20
2019-01-21T15:39:33.951Z,32.37
2019-01-21T15:42:52.442Z,28.00
2019-01-21T15:46:05.711Z,27.07
2019-01-21T15:48:55.815Z,28.73
2019-01-21T15:51:53.224Z,27.07
2019-01-21T15:55:00.647Z,27.97
2019-01-21T15:58:01.070Z,28.80
2019-01-21T16:00:57.221Z,28.53
2019-01-21T16:03:38.363Z,28.77
2019-01-21T16:06:38.377Z,33.33
2019-01-21T16:09:59.761Z,32.07
2019-01-21T16:13:03.001Z,33.77
2019-01-21T16:16:21.360Z,32.30
2019-01-21T16:19:03.800Z,33.93
2019-01-21T16:22:06.586Z,30.37
2019-01-21T16:25:09.530Z,33.10
2019-01-21T16:28:21.822Z,32.60
2019-01-21T16:31:15.426Z,36.40
2019-01-21T16:34:15.274Z,38.27
2019-01-21T16:37:10.800Z,32.33
2019-01-21T16:40:23.939Z,29.40
2019-01-21T16:42:53.326Z,31.23
2019-01-21T16:45:22.770Z,32.10
2019-01-21T16:47:52.098Z,40.47
2019-01-21T16:50:21.434Z,41.10
2019-01-21T16:52:50.897Z,40.03
2019-01-21T16:55:20.928Z,41.50
2019-01-21T16:57:50.337Z,40.43
2019-01-21T17:00:19.716Z,40.37
2019-01-21T17:02:49.078Z,39.77
2019-01-21T17:05:18.704Z,39.97
2019-01-21T17:07:48.061Z,40.40
2019-01-21T17:10:17.460Z,43.50
2019-01-21T17:12:46.803Z,42.27
2019-01-21T17:15:16.343Z,40.10
2019-01-21T17:17:45.739Z,44.80
2019-01-21T17:20:18.371Z,40.57
2019-01-21T17:22:49.249Z,38.37
2019-01-21T17:25:18.948Z,35.93
2019-01-21T17:27:48.395Z,39.33
2019-01-21T17:30:17.888Z,38.50
2019-01-21T17:32:47.267Z,39.33
2019-01-21T17:35:16.623Z,36.57
2019-01-21T17:37:46.018Z,34.93
2019-01-21T17:40:28.099Z,37.67
2019-01-21T17:42:58.089Z,38.13
2019-01-21T17:45:27.451Z,38.70
2019-01-21T17:47:56.830Z,39.50
2019-01-21T17:50:28.191Z,39.73
2019-01-21T17:53:00.246Z,41.77
2019-01-21T17:55:29.676Z,39.37
2019-01-21T17:57:59.038Z,43.00
2019-01-21T18:00:28.493Z,41.47
2019-01-21T18:02:58.042Z,35.73
2019-01-21T18:05:27.466Z,39.53
2019-01-21T18:07:56.839Z,42.10
2019-01-21T18:10:26.220Z,40.63
2019-01-21T18:12:55.830Z,36.97
2019-01-21T18:15:25.441Z,38.70
2019-01-21T18:17:54.821Z,34.10
2019-01-21T18:20:25.603Z,34.63
2019-01-21T18:22:55.657Z,38.47
2019-01-21T18:25:25.126Z,43.83
2019-01-21T18:27:54.546Z,40.97
2019-01-21T18:30:26.694Z,39.30
2019-01-21T18:32:56.234Z,41.93
2019-01-21T18:35:25.968Z,35.00
2019-01-21T18:37:55.404Z,37.17
2019-01-21T18:40:24.847Z,33.80
2019-01-21T18:42:54.172Z,31.77
2019-01-21T18:45:28.280Z,35.60
2019-01-21T18:47:57.678Z,36.40
2019-01-21T18:50:27.639Z,40.13
2019-01-21T18:52:57.022Z,44.40
2019-01-21T18:55:26.574Z,35.27
2019-01-21T18:57:57.443Z,30.80
2019-01-21T19:00:27.828Z,34.93
2019-01-21T19:02:57.446Z,33.90
2019-01-21T19:05:27.271Z,33.73
2019-01-21T19:07:56.627Z,38.00
2019-01-21T19:10:25.993Z,40.70
2019-01-21T19:12:55.393Z,40.03
2019-01-21T19:15:27.488Z,40.03
2019-01-21T19:17:56.900Z,38.07
2019-01-21T19:20:26.596Z,33.10
2019-01-21T19:22:55.946Z,30.90
2019-01-21T19:25:27.067Z,34.97
2019-01-21T19:27:56.500Z,35.57
2019-01-21T19:30:27.420Z,35.60
2019-01-21T19:32:58.407Z,39.87
2019-01-21T19:35:33.480Z,39.27
2019-01-21T19:38:02.835Z,40.43
2019-01-21T19:40:32.299Z,40.77
2019-01-21T19:43:01.691Z,43.67
2019-01-21T19:45:31.086Z,40.77
2019-01-21T19:48:01.419Z,38.43
2019-01-21T19:50:31.520Z,44.40
2019-01-21T19:53:02.191Z,46.67
2019-01-21T19:55:42.901Z,53.30
2019-01-21T19:58:13.134Z,55.53
2019-01-21T20:00:43.514Z,42.07
2019-01-21T20:03:12.929Z,46.03
2019-01-21T20:05:42.905Z,42.43
2019-01-21T20:08:13.478Z,43.50
2019-01-21T20:10:42.870Z,48.17
2019-01-21T20:13:12.277Z,45.27
2019-01-21T20:15:41.654Z,46.87
2019-01-21T20:18:12.286Z,44.77
2019-01-21T20:20:45.853Z,47.47
2019-01-21T20:23:15.240Z,45.60
2019-01-21T20:25:45.070Z,46.63
2019-01-21T20:28:14.559Z,43.93
2019-01-21T20:30:45.895Z,42.30
2019-01-21T20:33:15.291Z,37.43
2019-01-21T20:35:44.714Z,39.40
2019-01-21T20:38:15.983Z,37.37
2019-01-21T20:40:50.386Z,38.70
2019-01-21T20:43:19.823Z,37.57
2019-01-21T20:45:49.330Z,37.00
2019-01-21T20:48:18.882Z,36.53
2019-01-21T20:50:50.949Z,35.70
2019-01-21T20:53:20.423Z,33.07
2019-01-21T20:55:50.001Z,35.23
2019-01-21T20:58:19.553Z,36.50
2019-01-21T21:00:49.250Z,36.13
2019-01-21T21:03:18.879Z,39.07
2019-01-21T21:05:48.216Z,35.67
2019-01-21T21:08:18.880Z,32.07
2019-01-21T21:10:48.446Z,36.40
2019-01-21T21:13:18.024Z,38.67
2019-01-21T21:15:47.815Z,36.77
2019-01-21T21:18:17.680Z,34.63
2019-01-21T21:20:47.028Z,34.80
2019-01-21T21:23:16.341Z,36.17
2019-01-21T21:25:46.052Z,36.63
2019-01-21T21:28:15.607Z,35.73
2019-01-21T21:30:45.103Z,37.57
2019-01-21T21:33:14.492Z,35.40
2019-01-21T21:35:43.788Z,36.67
2019-01-21T21:38:13.183Z,31.40
2019-01-21T21:40:42.497Z,37.03
2019-01-21T21:43:11.900Z,37.07
2019-01-21T21:45:41.270Z,37.17
2019-01-21T21:48:10.623Z,37.60
2019-01-21T21:50:39.984Z,38.17
2019-01-21T21:53:09.329Z,38.50
2019-01-21T21:55:38.813Z,38.33
2019-01-21T21:58:08.462Z,41.93
2019-01-21T22:00:37.956Z,38.90
2019-01-21T22:03:07.440Z,42.60
2019-01-21T22:05:36.866Z,39.27
2019-01-21T22:08:09.133Z,37.13
2019-01-21T22:10:38.506Z,39.53
2019-01-21T22:13:07.855Z,36.27
2019-01-21T22:15:37.410Z,41.57
2019-01-21T22:18:06.824Z,41.40
2019-01-21T22:20:36.219Z,43.73
2019-01-21T22:23:05.779Z,44.23
2019-01-21T22:25:35.124Z,43.90
2019-01-21T22:28:04.499Z,41.50
2019-01-21T22:30:33.858Z,40.03
2019-01-21T22:33:03.172Z,40.27
2019-01-21T22:35:32.888Z,38.90
2019-01-21T22:38:02.242Z,41.53
2019-01-21T22:40:31.623Z,39.57
2019-01-21T22:43:00.976Z,39.23
2019-01-21T22:45:30.326Z,35.67
2019-01-21T22:47:59.934Z,35.60
2019-01-21T22:50:29.331Z,38.60
2019-01-21T22:52:58.684Z,35.90
2019-01-21T22:55:28.043Z,39.20
2019-01-21T22:57:57.362Z,40.30
2019-01-21T23:00:44.593Z,40.63
2019-01-21T23:03:14.570Z,36.97
2019-01-21T23:05:43.928Z,39.50
2019-01-21T23:08:13.316Z,35.93
2019-01-21T23:10:42.683Z,33.43
2019-01-21T23:13:12.016Z,29.30
2019-01-21T23:15:41.418Z,28.47
2019-01-21T23:18:10.851Z,27.33
2019-01-21T23:20:40.150Z,26.70
2019-01-21T23:23:09.760Z,24.07
2019-01-21T23:25:39.172Z,24.17
2019-01-21T23:28:08.520Z,24.63
2019-01-21T23:30:37.870Z,24.73
2019-01-21T23:33:07.232Z,23.73
2019-01-21T23:35:36.862Z,21.10
2019-01-21T23:38:06.180Z,21.87
2019-01-21T23:40:35.526Z,18.03
2019-01-21T23:43:04.881Z,22.40
2019-01-21T23:45:34.325Z,16.37
2019-01-21T23:48:03.699Z,19.10
2019-01-21T23:50:33.018Z,19.67
2019-01-21T23:53:02.380Z,19.60
2019-01-21T23:55:31.837Z,19.20
2019-01-21T23:58:01.188Z,20.10
